Time;durP1;ratioP1;P1;durP2;ratioP2;P2;SDS_P1;SDS_P2;PMS_P1;PMS_P2;Temp;Humidity;BMP_temperature;BMP_pressure;BME280_temperature;BME280_humidity;BME280_pressure;Samples;Min_cycle;Max_cycle;Signal;HPM_P1;HPM_P2
2024/01/25 00:00:29;;;;;;;21.87;13.53;;;;;21.20;101569.00;;;;2074764;28;20664;-59
2024/01/25 00:01:29;;;;;;;21.77;14.10;;;;;21.20;101565.00;;;;2073037;28;21039;-59
2024/01/25 00:02:30;;;;;;;23.67;13.30;;;;;21.20;101569.00;;;;2079050;28;20209;-59
2024/01/25 00:03:30;;;;;;;23.37;13.73;;;;;21.20;101566.00;;;;2062413;28;20630;-58
2024/01/25 00:04:30;;;;;;;24.40;12.97;;;;;21.20;101555.00;;;;2077564;28;20661;-60
2024/01/25 00:05:31;;;;;;;23.13;13.33;;;;;21.20;101566.00;;;;2072853;28;20550;-59
2024/01/25 00:06:31;;;;;;;19.60;13.00;;;;;21.20;101563.00;;;;2074158;28;20217;-58
2024/01/25 00:07:31;;;;;;;22.80;11.90;;;;;21.20;101569.00;;;;2077194;28;20213;-59
2024/01/25 00:08:32;;;;;;;26.57;13.90;;;;;21.20;101568.00;;;;2059752;28;20216;-59
2024/01/25 00:09:32;;;;;;;19.43;12.30;;;;;21.20;101559.00;;;;2078652;28;20209;-58
2024/01/25 00:10:33;;;;;;;23.90;12.70;;;;;21.20;101559.00;;;;2068992;28;20213;-59
2024/01/25 00:11:33;;;;;;;19.43;12.83;;;;;21.20;101562.00;;;;2074396;28;20337;-60
2024/01/25 00:12:34;;;;;;;23.07;13.30;;;;;21.20;101568.00;;;;2072088;28;20302;-59
2024/01/25 00:13:34;;;;;;;22.17;12.70;;;;;21.20;101571.00;;;;2060349;28;21039;-59
2024/01/25 00:14:34;;;;;;;20.13;12.60;;;;;21.20;101582.00;;;;2073997;28;20800;-58
2024/01/25 00:15:35;;;;;;;22.23;11.73;;;;;21.20;101573.00;;;;2077843;28;20207;-59
2024/01/25 00:16:35;;;;;;;23.23;12.43;;;;;21.10;101575.00;;;;2085484;28;20278;-60
2024/01/25 00:17:36;;;;;;;22.23;13.10;;;;;21.20;101577.00;;;;2067812;28;20210;-59
2024/01/25 00:18:36;;;;;;;20.00;12.80;;;;;21.10;101568.00;;;;2059994;28;20287;-58
2024/01/25 00:19:36;;;;;;;20.70;11.70;;;;;21.10;101579.00;;;;2066169;28;20482;-58
2024/01/25 00:20:37;;;;;;;21.57;12.37;;;;;21.10;101577.00;;;;2066812;28;20214;-57
2024/01/25 00:21:44;;;;;;;22.70;12.50;;;;;21.10;101574.00;;;;2068853;28;20301;-60
2024/01/25 00:22:44;;;;;;;19.05;11.93;;;;;21.10;101572.00;;;;2069328;28;21314;-58
2024/01/25 00:23:44;;;;;;;20.90;11.37;;;;;21.20;101572.00;;;;2058498;28;20254;-58
2024/01/25 00:24:45;;;;;;;18.57;11.00;;;;;21.10;101571.00;;;;2066126;28;20298;-58
2024/01/25 00:25:45;;;;;;;17.43;11.47;;;;;21.20;101569.00;;;;2070384;28;20315;-59
2024/01/25 00:26:46;;;;;;;19.70;11.00;;;;;21.10;101568.00;;;;2068178;28;20210;-60
2024/01/25 00:27:47;;;;;;;17.23;11.80;;;;;21.10;101573.00;;;;2070568;28;20214;-59
2024/01/25 00:28:47;;;;;;;19.25;11.15;;;;;21.10;101571.00;;;;2057905;28;20313;-58
2024/01/25 00:29:47;;;;;;;16.80;10.70;;;;;21.10;101581.00;;;;2067669;28;20277;-58
2024/01/25 00:30:48;;;;;;;18.67;11.00;;;;;21.10;101578.00;;;;2070604;28;20249;-60
2024/01/25 00:31:48;;;;;;;21.10;11.13;;;;;21.10;101575.00;;;;2069750;28;20292;-59
2024/01/25 00:32:49;;;;;;;17.77;11.20;;;;;21.10;101580.00;;;;2073725;28;20217;-59
2024/01/25 00:33:49;;;;;;;20.73;11.27;;;;;21.10;101580.00;;;;2059042;28;20305;-58
2024/01/25 00:34:50;;;;;;;17.93;11.80;;;;;21.10;101577.00;;;;2076515;28;20220;-57
2024/01/25 00:35:50;;;;;;;18.57;11.00;;;;;21.10;101586.00;;;;2069643;28;20238;-60
2024/01/25 00:36:51;;;;;;;17.90;10.83;;;;;21.10;101579.00;;;;2074495;28;20270;-59
2024/01/25 00:37:51;;;;;;;22.03;12.10;;;;;21.10;101577.00;;;;2077228;28;20296;-59
2024/01/25 00:38:53;;;;;;;18.97;11.10;;;;;21.10;101575.00;;;;2065401;28;20582;-58
2024/01/25 00:39:53;;;;;;;18.55;10.68;;;;;21.10;101581.00;;;;2072390;28;20211;-60
2024/01/25 00:40:54;;;;;;;20.10;9.50;;;;;21.10;101579.00;;;;2066025;28;20335;-60
2024/01/25 00:41:58;;;;;;;17.60;10.30;;;;;21.10;101559.00;;;;2068580;28;20238;-61
2024/01/25 00:42:59;;;;;;;18.50;10.85;;;;;21.10;101578.00;;;;2064600;28;20217;-61
2024/01/25 00:43:59;;;;;;;18.00;10.30;;;;;21.00;101580.00;;;;2051561;28;20226;-60
2024/01/25 00:45:00;;;;;;;16.80;10.77;;;;;21.00;101567.00;;;;2069079;28;20681;-60
2024/01/25 00:46:00;;;;;;;20.40;11.10;;;;;21.10;101565.00;;;;2068773;28;20206;-60
2024/01/25 00:47:01;;;;;;;17.00;9.90;;;;;21.10;101568.00;;;;2070374;28;20668;-61
2024/01/25 00:48:01;;;;;;;17.30;10.40;;;;;21.10;101570.00;;;;2068556;28;20221;-60
2024/01/25 00:49:02;;;;;;;18.50;10.43;;;;;21.10;101568.00;;;;2065621;28;20221;-60
2024/01/25 00:50:02;;;;;;;18.37;10.30;;;;;21.00;101575.00;;;;2075705;28;20210;-60
2024/01/25 00:51:03;;;;;;;17.73;10.10;;;;;21.00;101565.00;;;;2079924;28;20217;-60
2024/01/25 00:52:04;;;;;;;16.92;9.90;;;;;21.00;101574.00;;;;2077475;28;20276;-59
2024/01/25 00:53:05;;;;;;;14.90;10.60;;;;;21.00;101587.00;;;;2064238;28;20403;-60
2024/01/25 00:54:06;;;;;;;17.50;10.20;;;;;21.00;101581.00;;;;2066099;28;20225;-62
2024/01/25 00:55:06;;;;;;;20.33;9.97;;;;;21.00;101574.00;;;;2067116;28;20269;-59
2024/01/25 00:56:07;;;;;;;17.60;9.30;;;;;21.00;101569.00;;;;2070376;28;20353;-60
2024/01/25 00:57:08;;;;;;;18.57;10.30;;;;;21.00;101575.00;;;;2062608;28;20977;-60
2024/01/25 00:58:09;;;;;;;17.70;9.97;;;;;21.00;101569.00;;;;2062816;28;20454;-59
2024/01/25 00:59:11;;;;;;;18.37;9.90;;;;;21.00;101576.00;;;;2059613;28;20989;-62
2024/01/25 01:00:12;;;;;;;16.23;9.40;;;;;21.00;101581.00;;;;2064499;28;20750;-60
2024/01/25 01:01:12;;;;;;;17.63;9.50;;;;;21.00;101571.00;;;;2070348;28;20253;-59
2024/01/25 01:02:13;;;;;;;17.27;9.30;;;;;21.00;101583.00;;;;2068557;28;20502;-60
2024/01/25 01:03:13;;;;;;;16.37;9.93;;;;;21.00;101568.00;;;;2077527;28;20968;-60
2024/01/25 01:04:17;;;;;;;17.07;9.43;;;;;21.00;101580.00;;;;2040698;28;20981;-60
2024/01/25 01:05:17;;;;;;;18.00;9.13;;;;;21.00;101581.00;;;;2048803;28;20216;-59
2024/01/25 01:06:20;;;;;;;13.53;8.30;;;;;21.00;101581.00;;;;2078740;28;20217;-61
2024/01/25 01:07:21;;;;;;;16.58;9.27;;;;;21.00;101579.00;;;;2068087;28;20219;-60
2024/01/25 01:08:21;;;;;;;16.97;9.43;;;;;21.00;101577.00;;;;2078243;28;20213;-58
2024/01/25 01:09:21;;;;;;;15.20;8.80;;;;;21.00;101579.00;;;;2063858;28;20219;-61
2024/01/25 01:10:22;;;;;;;15.67;8.90;;;;;21.00;101584.00;;;;2078579;28;20213;-61
2024/01/25 01:11:22;;;;;;;18.27;9.90;;;;;21.00;101582.00;;;;2075780;28;20236;-61
2024/01/25 01:12:22;;;;;;;20.57;8.90;;;;;21.00;101573.00;;;;2065496;28;20247;-60
2024/01/25 01:13:23;;;;;;;16.60;9.03;;;;;21.00;101570.00;;;;2070278;28;20466;-58
2024/01/25 01:14:23;;;;;;;15.10;9.23;;;;;21.00;101572.00;;;;2065766;28;20210;-58
2024/01/25 01:15:23;;;;;;;15.03;9.07;;;;;21.00;101577.00;;;;2078554;28;20264;-58
2024/01/25 01:16:24;;;;;;;15.77;9.03;;;;;21.00;101571.00;;;;2072219;28;20219;-59
2024/01/25 01:17:24;;;;;;;15.87;8.80;;;;;21.00;101574.00;;;;2066533;28;20281;-59
2024/01/25 01:18:24;;;;;;;16.37;8.43;;;;;21.00;101575.00;;;;2067949;28;20237;-60
2024/01/25 01:19:25;;;;;;;14.23;9.40;;;;;21.00;101572.00;;;;2067422;28;20230;-58
2024/01/25 01:20:25;;;;;;;12.43;7.83;;;;;21.00;101574.00;;;;2078520;28;20229;-59
2024/01/25 01:21:25;;;;;;;14.30;8.30;;;;;21.00;101567.00;;;;2069938;28;20226;-58
2024/01/25 01:22:26;;;;;;;14.80;8.63;;;;;21.00;101578.00;;;;2072177;28;20214;-58
2024/01/25 01:23:26;;;;;;;15.03;8.20;;;;;21.00;101581.00;;;;2064189;28;20267;-56
2024/01/25 01:24:26;;;;;;;14.70;7.73;;;;;20.90;101643.00;;;;2071384;28;21150;-58
2024/01/25 01:25:27;;;;;;;17.43;9.13;;;;;20.90;101590.00;;;;2077893;28;20747;-58
2024/01/25 01:26:27;;;;;;;17.60;9.73;;;;;20.90;101589.00;;;;2071835;28;20677;-57
2024/01/25 01:27:27;;;;;;;12.47;7.80;;;;;21.00;101591.00;;;;2075967;28;20706;-58
2024/01/25 01:28:28;;;;;;;15.20;7.87;;;;;20.90;101591.00;;;;2059197;28;20217;-56
2024/01/25 01:29:28;;;;;;;15.00;8.17;;;;;20.90;101586.00;;;;2077801;28;20416;-58
2024/01/25 01:30:28;;;;;;;15.50;8.53;;;;;20.90;101591.00;;;;2075129;28;20239;-57
2024/01/25 01:31:29;;;;;;;16.67;7.83;;;;;20.90;101593.00;;;;2073078;28;20209;-58
2024/01/25 01:32:29;;;;;;;14.47;8.10;;;;;20.90;101596.00;;;;2077004;28;20198;-58
2024/01/25 01:33:29;;;;;;;13.70;7.60;;;;;20.90;101591.00;;;;2057795;28;20202;-57
2024/01/25 01:34:30;;;;;;;11.70;6.60;;;;;20.90;101598.00;;;;2076577;28;20670;-57
2024/01/25 01:35:31;;;;;;;14.30;7.30;;;;;20.90;101589.00;;;;2068991;28;20207;-59
2024/01/25 01:36:31;;;;;;;14.20;8.00;;;;;20.90;101591.00;;;;2068473;28;20446;-59
2024/01/25 01:37:31;;;;;;;13.67;7.90;;;;;20.90;101596.00;;;;2068939;28;20198;-59
2024/01/25 01:38:31;;;;;;;14.43;7.53;;;;;20.90;101591.00;;;;2063157;28;20198;-56
2024/01/25 01:39:32;;;;;;;12.60;7.37;;;;;20.90;101601.00;;;;2077767;28;20214;-57
2024/01/25 01:40:32;;;;;;;16.30;7.30;;;;;20.90;101594.00;;;;2068973;28;20193;-56
2024/01/25 01:41:32;;;;;;;11.97;7.20;;;;;20.90;101596.00;;;;2078115;28;20281;-56
2024/01/25 01:42:33;;;;;;;12.23;7.20;;;;;20.90;101595.00;;;;2073725;28;20263;-57
2024/01/25 01:43:33;;;;;;;12.40;7.33;;;;;20.90;101593.00;;;;2067745;28;20217;-60
2024/01/25 01:44:34;;;;;;;11.23;6.80;;;;;20.90;101593.00;;;;2070548;28;20305;-58
2024/01/25 01:45:34;;;;;;;14.60;7.70;;;;;20.90;101603.00;;;;2068166;28;20205;-59
2024/01/25 01:46:36;;;;;;;13.90;7.40;;;;;20.90;101604.00;;;;2076760;28;20206;-58
2024/01/25 01:47:37;;;;;;;13.00;6.95;;;;;20.90;101607.00;;;;2073120;28;20292;-57
2024/01/25 01:48:39;;;;;;;15.17;8.17;;;;;20.90;101609.00;;;;2064516;28;20913;-56
2024/01/25 01:49:39;;;;;;;13.48;7.35;;;;;20.90;101616.00;;;;2071041;28;20632;-58
2024/01/25 01:50:39;;;;;;;15.33;7.50;;;;;20.90;101617.00;;;;2077202;28;20201;-58
2024/01/25 01:51:40;;;;;;;13.10;6.50;;;;;20.90;101598.00;;;;2073007;28;20199;-58
2024/01/25 01:52:40;;;;;;;12.40;6.77;;;;;20.90;101612.00;;;;2073701;28;20210;-58
2024/01/25 01:53:41;;;;;;;9.93;6.00;;;;;20.90;101603.00;;;;2067761;28;20209;-58
2024/01/25 01:54:41;;;;;;;12.80;6.60;;;;;20.90;101606.00;;;;2068207;28;20209;-57
2024/01/25 01:55:41;;;;;;;13.43;6.13;;;;;20.90;101613.00;;;;2068978;28;20948;-56
2024/01/25 01:56:42;;;;;;;11.67;6.03;;;;;20.90;101586.00;;;;2071460;28;20217;-56
2024/01/25 01:57:42;;;;;;;11.50;7.23;;;;;20.90;101604.00;;;;2065368;28;26431;-57
2024/01/25 01:58:42;;;;;;;12.53;7.03;;;;;20.90;101619.00;;;;2046950;28;20667;-59
2024/01/25 01:59:43;;;;;;;14.17;7.10;;;;;20.80;101621.00;;;;2049269;28;20231;-58
2024/01/25 02:00:43;;;;;;;12.47;6.30;;;;;20.80;101592.00;;;;2052833;28;20227;-59
2024/01/25 02:01:44;;;;;;;11.90;6.40;;;;;20.80;101614.00;;;;2053242;28;20215;-56
2024/01/25 02:02:44;;;;;;;13.90;7.13;;;;;20.80;101614.00;;;;2070362;28;20763;-57
2024/01/25 02:03:45;;;;;;;11.47;6.67;;;;;20.80;101612.00;;;;2068111;28;20226;-59
2024/01/25 02:04:45;;;;;;;13.70;7.50;;;;;20.80;101618.00;;;;2070293;28;22080;-57
2024/01/25 02:05:46;;;;;;;9.83;6.10;;;;;20.80;101618.00;;;;2071231;28;20677;-58
2024/01/25 02:06:46;;;;;;;13.00;6.60;;;;;20.80;101624.00;;;;2077903;28;20209;-56
2024/01/25 02:07:47;;;;;;;12.27;7.00;;;;;20.90;101623.00;;;;2073885;28;20479;-57
2024/01/25 02:08:48;;;;;;;8.37;5.60;;;;;20.90;101619.00;;;;2067719;28;20213;-58
2024/01/25 02:09:48;;;;;;;12.13;6.83;;;;;20.80;101616.00;;;;2068787;28;20215;-57
2024/01/25 02:10:48;;;;;;;12.37;6.10;;;;;20.80;101622.00;;;;2066481;28;20485;-57
2024/01/25 02:11:59;;;;;;;11.63;6.80;;;;;20.80;101624.00;;;;2070915;28;20212;-57
2024/01/25 02:12:59;;;;;;;14.63;6.28;;;;;20.80;101627.00;;;;2067924;28;20210;-57
2024/01/25 02:13:59;;;;;;;12.77;5.73;;;;;20.80;101627.00;;;;2058432;28;20210;-58
2024/01/25 02:15:00;;;;;;;12.80;6.10;;;;;20.80;101638.00;;;;2074735;28;20233;-57
2024/01/25 02:16:00;;;;;;;15.33;6.70;;;;;20.80;101639.00;;;;2077650;28;20259;-58
2024/01/25 02:17:00;;;;;;;10.30;6.17;;;;;20.80;101637.00;;;;2065202;28;20211;-58
2024/01/25 02:18:01;;;;;;;10.87;6.03;;;;;20.80;101628.00;;;;2068511;28;20227;-56
2024/01/25 02:19:01;;;;;;;12.57;6.50;;;;;20.80;101636.00;;;;2061661;28;20250;-56
2024/01/25 02:20:03;;;;;;;10.90;6.00;;;;;20.80;101633.00;;;;2076037;28;20296;-58
2024/01/25 02:21:03;;;;;;;9.80;5.88;;;;;20.80;101638.00;;;;2077799;28;21130;-57
2024/01/25 02:22:04;;;;;;;12.60;5.87;;;;;20.80;101636.00;;;;2069151;28;20278;-60
2024/01/25 02:23:04;;;;;;;10.90;6.17;;;;;20.80;101632.00;;;;2076803;28;20214;-57
2024/01/25 02:24:05;;;;;;;14.13;5.90;;;;;20.80;101633.00;;;;2057578;28;20211;-57
2024/01/25 02:25:06;;;;;;;13.50;5.47;;;;;20.80;101628.00;;;;2076521;28;20299;-56
2024/01/25 02:26:06;;;;;;;10.43;5.03;;;;;20.80;101642.00;;;;2073282;28;20978;-57
2024/01/25 02:27:07;;;;;;;12.80;5.90;;;;;20.80;101643.00;;;;2076723;28;20209;-57
2024/01/25 02:28:07;;;;;;;10.57;5.93;;;;;20.80;101647.00;;;;2069918;28;20218;-57
2024/01/25 02:29:09;;;;;;;11.53;6.53;;;;;20.80;101646.00;;;;2052220;28;20210;-56
2024/01/25 02:30:10;;;;;;;12.57;5.65;;;;;20.80;101649.00;;;;2077550;28;20296;-56
2024/01/25 02:31:10;;;;;;;11.10;5.73;;;;;20.80;101652.00;;;;2065133;28;20261;-58
2024/01/25 02:32:10;;;;;;;10.87;5.97;;;;;20.80;101643.00;;;;2069548;28;20218;-55
2024/01/25 02:33:11;;;;;;;15.73;5.80;;;;;20.80;101649.00;;;;2068299;28;21975;-58
2024/01/25 02:34:11;;;;;;;10.23;5.80;;;;;20.80;101660.00;;;;2058713;28;21124;-56
2024/01/25 02:35:11;;;;;;;11.10;5.10;;;;;20.80;101647.00;;;;2075804;28;21049;-56
2024/01/25 02:36:12;;;;;;;12.43;5.20;;;;;20.80;101646.00;;;;2061986;28;20622;-56
2024/01/25 02:37:14;;;;;;;13.10;5.93;;;;;20.80;101649.00;;;;2077714;28;20224;-56
2024/01/25 02:38:14;;;;;;;10.85;5.78;;;;;20.80;101658.00;;;;2069442;28;20226;-57
2024/01/25 02:39:14;;;;;;;9.90;4.90;;;;;20.40;101659.00;;;;2057549;28;20233;-57
2024/01/25 02:40:15;;;;;;;9.63;4.70;;;;;20.80;101659.00;;;;2071583;28;20312;-57
2024/01/25 02:41:15;;;;;;;7.87;4.30;;;;;20.80;101651.00;;;;2076425;28;20222;-57
2024/01/25 02:42:16;;;;;;;11.30;5.03;;;;;20.80;101654.00;;;;2070814;28;20584;-58
2024/01/25 02:43:17;;;;;;;11.95;5.43;;;;;20.80;101656.00;;;;2069500;28;20214;-57
2024/01/25 02:44:17;;;;;;;9.73;4.53;;;;;20.80;101654.00;;;;2072390;28;20209;-59
2024/01/25 02:45:18;;;;;;;10.97;5.27;;;;;20.80;101657.00;;;;2074655;28;20214;-58
2024/01/25 02:46:18;;;;;;;11.10;5.37;;;;;20.70;101649.00;;;;2078114;28;20285;-57
2024/01/25 02:47:18;;;;;;;12.30;5.67;;;;;20.70;101651.00;;;;2074621;28;20217;-56
2024/01/25 02:48:19;;;;;;;9.00;5.30;;;;;20.70;101652.00;;;;2077705;28;21021;-57
2024/01/25 02:49:19;;;;;;;10.70;5.50;;;;;20.80;101647.00;;;;2067483;28;20225;-57
2024/01/25 02:50:19;;;;;;;10.10;5.07;;;;;20.70;101647.00;;;;2068426;28;20301;-56
2024/01/25 02:51:20;;;;;;;11.50;5.77;;;;;20.70;101666.00;;;;2070613;28;20226;-57
2024/01/25 02:52:20;;;;;;;10.50;5.03;;;;;20.70;101646.00;;;;2072331;28;20690;-57
2024/01/25 02:53:20;;;;;;;9.63;4.70;;;;;20.70;101647.00;;;;2077287;28;20924;-58
2024/01/25 02:54:21;;;;;;;11.63;5.37;;;;;20.70;101646.00;;;;2060782;28;20746;-58
2024/01/25 02:55:21;;;;;;;7.70;4.13;;;;;20.70;101647.00;;;;2078021;28;20242;-56
2024/01/25 02:56:21;;;;;;;10.53;4.60;;;;;20.70;101651.00;;;;2075921;28;20284;-58
2024/01/25 02:57:22;;;;;;;10.60;5.50;;;;;20.70;101649.00;;;;2070126;28;20782;-57
2024/01/25 02:58:23;;;;;;;10.48;4.75;;;;;20.70;101654.00;;;;2077470;28;21047;-58
2024/01/25 02:59:23;;;;;;;8.63;5.07;;;;;20.70;101654.00;;;;2058419;28;20349;-58
2024/01/25 03:00:23;;;;;;;6.90;4.43;;;;;20.70;101682.00;;;;2068959;28;20691;-57
2024/01/25 03:01:24;;;;;;;8.23;4.83;;;;;20.70;101659.00;;;;2068170;28;20711;-57
2024/01/25 03:02:24;;;;;;;9.33;4.57;;;;;20.70;101651.00;;;;2062562;28;20293;-57
2024/01/25 03:03:24;;;;;;;11.33;5.50;;;;;20.70;101651.00;;;;2062311;28;20265;-58
2024/01/25 03:04:25;;;;;;;9.60;4.50;;;;;20.70;101653.00;;;;2065055;28;20301;-58
2024/01/25 03:05:25;;;;;;;9.03;4.67;;;;;20.70;101654.00;;;;2066740;28;20564;-58
2024/01/25 03:06:25;;;;;;;6.73;4.20;;;;;20.70;101663.00;;;;2077527;28;20209;-59
2024/01/25 03:07:26;;;;;;;8.83;4.57;;;;;20.70;101656.00;;;;2070413;28;20292;-59
2024/01/25 03:08:26;;;;;;;7.43;4.20;;;;;20.70;101664.00;;;;2055078;28;20219;-59
2024/01/25 03:09:27;;;;;;;10.10;4.80;;;;;20.70;101661.00;;;;2075766;28;20217;-59
2024/01/25 03:10:28;;;;;;;10.95;5.40;;;;;20.70;101668.00;;;;2070722;28;20206;-58
2024/01/25 03:11:29;;;;;;;10.20;5.17;;;;;20.70;101674.00;;;;2077551;28;20263;-59
2024/01/25 03:12:29;;;;;;;9.10;4.20;;;;;20.70;101670.00;;;;2069880;28;20454;-56
2024/01/25 03:13:29;;;;;;;10.37;4.40;;;;;20.70;101675.00;;;;2062558;28;20208;-59
2024/01/25 03:14:30;;;;;;;8.50;4.50;;;;;20.70;101672.00;;;;2065309;28;20215;-58
2024/01/25 03:15:30;;;;;;;10.00;4.87;;;;;20.70;101673.00;;;;2058844;28;20221;-56
2024/01/25 03:16:30;;;;;;;9.40;4.43;;;;;20.60;101690.00;;;;2071163;28;20238;-59
2024/01/25 03:17:31;;;;;;;9.10;4.00;;;;;20.60;101667.00;;;;2067348;28;20773;-59
2024/01/25 03:18:31;;;;;;;10.30;4.20;;;;;20.60;101666.00;;;;2064992;28;21737;-57
2024/01/25 03:19:31;;;;;;;11.43;4.47;;;;;20.70;101665.00;;;;2068665;28;21006;-58
2024/01/25 03:20:32;;;;;;;10.83;4.90;;;;;20.70;101679.00;;;;2077461;28;20853;-56
2024/01/25 03:21:32;;;;;;;8.87;4.07;;;;;20.70;101670.00;;;;2074067;28;20725;-58
2024/01/25 03:22:32;;;;;;;8.63;4.10;;;;;20.70;101673.00;;;;2066584;28;20938;-57
2024/01/25 03:23:33;;;;;;;9.63;4.43;;;;;20.70;101681.00;;;;2066987;28;20768;-58
2024/01/25 03:24:33;;;;;;;9.63;4.47;;;;;20.70;101674.00;;;;2067246;28;20665;-59
2024/01/25 03:25:33;;;;;;;9.87;4.20;;;;;20.70;101687.00;;;;2077380;28;20852;-58
2024/01/25 03:26:34;;;;;;;8.17;4.20;;;;;20.70;101675.00;;;;2066457;28;20706;-59
2024/01/25 03:27:34;;;;;;;6.97;3.97;;;;;20.70;101686.00;;;;2063644;28;20678;-59
2024/01/25 03:28:35;;;;;;;8.93;4.33;;;;;20.60;101682.00;;;;2058360;28;20217;-58
2024/01/25 03:29:36;;;;;;;9.52;4.20;;;;;20.60;101680.00;;;;2068357;28;20693;-58
2024/01/25 03:30:36;;;;;;;11.33;4.50;;;;;20.40;101683.00;;;;2069129;28;20210;-59
2024/01/25 03:31:37;;;;;;;8.10;4.43;;;;;20.70;101686.00;;;;2065906;28;20288;-59
2024/01/25 03:32:37;;;;;;;8.10;4.05;;;;;20.60;101704.00;;;;2068775;28;20210;-59
2024/01/25 03:33:38;;;;;;;8.37;3.70;;;;;20.60;101678.00;;;;2055775;28;20695;-57
2024/01/25 03:34:38;;;;;;;7.80;4.10;;;;;20.70;101683.00;;;;2066483;28;20946;-59
2024/01/25 03:35:38;;;;;;;9.70;4.03;;;;;20.70;101676.00;;;;2074304;28;20235;-57
2024/01/25 03:36:39;;;;;;;10.50;4.30;;;;;20.60;101681.00;;;;2064147;28;20338;-58
2024/01/25 03:37:40;;;;;;;9.57;4.30;;;;;20.60;101682.00;;;;2072280;28;20598;-58
2024/01/25 03:38:40;;;;;;;6.13;3.80;;;;;20.60;101681.00;;;;2058613;28;20518;-58
2024/01/25 03:39:40;;;;;;;11.03;4.00;;;;;20.60;101673.00;;;;2071987;28;20218;-58
2024/01/25 03:40:41;;;;;;;10.27;4.50;;;;;20.60;101682.00;;;;2075080;28;20241;-58
2024/01/25 03:41:41;;;;;;;10.40;3.97;;;;;20.60;101674.00;;;;2068738;28;20285;-58
2024/01/25 03:42:41;;;;;;;11.47;4.30;;;;;20.60;101670.00;;;;2073943;28;20792;-58
2024/01/25 03:43:42;;;;;;;10.07;3.87;;;;;20.60;101675.00;;;;2056273;28;20202;-58
2024/01/25 03:44:44;;;;;;;7.83;3.73;;;;;20.60;101682.00;;;;2075340;28;20206;-58
2024/01/25 03:45:44;;;;;;;11.27;3.80;;;;;20.60;101676.00;;;;2066812;28;20214;-58
2024/01/25 03:46:45;;;;;;;9.40;4.00;;;;;20.60;101677.00;;;;2073275;28;20637;-58
2024/01/25 03:47:46;;;;;;;7.90;3.97;;;;;20.60;101680.00;;;;2069433;28;20239;-59
2024/01/25 03:48:46;;;;;;;12.37;4.00;;;;;20.60;101550.00;;;;2055622;28;20702;-58
2024/01/25 03:49:47;;;;;;;9.60;3.63;;;;;20.60;101678.00;;;;2069462;28;20645;-58
2024/01/25 03:50:47;;;;;;;9.10;4.20;;;;;20.60;101680.00;;;;2070200;28;20233;-58
2024/01/25 03:51:48;;;;;;;7.90;3.73;;;;;20.60;101685.00;;;;2077070;28;20292;-59
2024/01/25 03:52:48;;;;;;;7.83;3.93;;;;;20.60;101692.00;;;;2072794;28;20210;-57
2024/01/25 03:53:48;;;;;;;6.33;3.60;;;;;20.60;101686.00;;;;2067072;28;20210;-58
2024/01/25 03:54:48;;;;;;;8.10;4.03;;;;;20.60;101689.00;;;;2067688;28;20235;-59
2024/01/25 03:55:49;;;;;;;7.63;3.63;;;;;20.60;101688.00;;;;2069643;28;20213;-59
2024/01/25 03:56:49;;;;;;;10.27;4.50;;;;;20.60;101692.00;;;;2075174;28;20218;-57
2024/01/25 03:57:49;;;;;;;8.63;3.83;;;;;20.60;101688.00;;;;2070774;28;20241;-57
2024/01/25 03:58:50;;;;;;;7.17;3.87;;;;;20.60;101689.00;;;;2065375;28;21182;-58
2024/01/25 03:59:50;;;;;;;7.83;3.80;;;;;20.60;101695.00;;;;2064858;28;20776;-57
2024/01/25 04:00:50;;;;;;;9.87;3.80;;;;;20.60;101744.00;;;;2075331;28;20751;-57
2024/01/25 04:01:51;;;;;;;6.60;3.37;;;;;20.60;101703.00;;;;2073019;28;20584;-59
2024/01/25 04:02:51;;;;;;;9.10;3.30;;;;;20.60;101694.00;;;;2074001;28;20570;-59
2024/01/25 04:03:51;;;;;;;8.00;3.97;;;;;20.60;101693.00;;;;2065565;28;20731;-58
2024/01/25 04:04:52;;;;;;;7.50;3.63;;;;;20.60;101689.00;;;;2072287;28;20216;-58
2024/01/25 04:05:52;;;;;;;9.60;3.53;;;;;20.60;101689.00;;;;2077011;28;20220;-56
2024/01/25 04:06:52;;;;;;;6.60;3.50;;;;;20.60;101684.00;;;;2066675;28;20211;-58
2024/01/25 04:07:53;;;;;;;6.60;2.90;;;;;20.60;101683.00;;;;2065840;28;20230;-57
2024/01/25 04:08:53;;;;;;;8.27;3.30;;;;;20.50;101682.00;;;;2060571;28;20288;-58
2024/01/25 04:09:53;;;;;;;6.27;3.00;;;;;20.60;101686.00;;;;2066295;28;20221;-59
2024/01/25 04:10:54;;;;;;;6.80;3.03;;;;;20.60;101702.00;;;;2074661;28;20241;-59
2024/01/25 04:11:55;;;;;;;10.17;3.63;;;;;20.50;101684.00;;;;2063854;28;20524;-57
2024/01/25 04:12:55;;;;;;;6.53;3.47;;;;;20.50;101692.00;;;;2073957;28;20213;-58
2024/01/25 04:13:56;;;;;;;6.70;3.10;;;;;20.60;101685.00;;;;2062363;28;20222;-58
2024/01/25 04:14:56;;;;;;;8.40;3.43;;;;;20.50;101694.00;;;;2070238;28;20221;-59
2024/01/25 04:15:56;;;;;;;10.67;3.70;;;;;20.50;101690.00;;;;2070051;28;20213;-58
2024/01/25 04:16:57;;;;;;;11.57;4.43;;;;;20.50;101698.00;;;;2068447;28;20210;-58
2024/01/25 04:17:57;;;;;;;7.17;3.13;;;;;20.50;101690.00;;;;2076360;28;20285;-58
2024/01/25 04:18:57;;;;;;;9.70;4.57;;;;;20.50;101686.00;;;;2057628;28;20711;-61
2024/01/25 04:19:58;;;;;;;7.03;3.17;;;;;20.50;101695.00;;;;2067670;28;20293;-59
2024/01/25 04:20:58;;;;;;;8.93;3.60;;;;;20.50;101695.00;;;;2069531;28;20687;-59
2024/01/25 04:21:58;;;;;;;9.43;3.60;;;;;20.50;101698.00;;;;2074468;28;20686;-58
2024/01/25 04:22:59;;;;;;;9.80;3.70;;;;;20.50;101695.00;;;;2068023;28;20769;-57
2024/01/25 04:23:59;;;;;;;7.93;3.17;;;;;20.50;101698.00;;;;2056421;28;20607;-57
2024/01/25 04:24:59;;;;;;;6.60;3.00;;;;;20.50;101698.00;;;;2071599;28;20848;-57
2024/01/25 04:26:00;;;;;;;6.10;2.87;;;;;20.50;101699.00;;;;2075361;28;20713;-58
2024/01/25 04:27:00;;;;;;;6.57;3.13;;;;;20.50;101736.00;;;;2075365;28;20666;-58
2024/01/25 04:28:01;;;;;;;6.07;3.00;;;;;20.50;101705.00;;;;2070197;28;20942;-59
2024/01/25 04:29:02;;;;;;;6.47;3.03;;;;;20.50;101702.00;;;;2069293;28;20710;-57
2024/01/25 04:30:03;;;;;;;9.57;3.67;;;;;20.50;101705.00;;;;2085318;28;20217;-58
2024/01/25 04:31:03;;;;;;;7.43;3.42;;;;;20.50;101702.00;;;;2078780;28;20244;-58
2024/01/25 04:32:04;;;;;;;7.07;3.23;;;;;20.50;101712.00;;;;2078481;28;20223;-58
2024/01/25 04:33:05;;;;;;;8.70;3.00;;;;;20.50;101717.00;;;;2065869;28;20233;-59
2024/01/25 04:34:05;;;;;;;7.67;3.00;;;;;20.50;101716.00;;;;2064406;28;20459;-59
2024/01/25 04:35:06;;;;;;;8.60;3.70;;;;;20.50;101717.00;;;;2073582;28;20238;-58
2024/01/25 04:36:06;;;;;;;9.10;2.87;;;;;20.50;101717.00;;;;2076589;28;20224;-58
2024/01/25 04:37:06;;;;;;;7.13;2.90;;;;;20.50;101708.00;;;;2076979;28;20218;-58
2024/01/25 04:38:07;;;;;;;7.70;3.33;;;;;20.50;101712.00;;;;2075704;28;20244;-59
2024/01/25 04:39:07;;;;;;;6.80;3.20;;;;;20.50;101716.00;;;;2073510;28;20209;-60
2024/01/25 04:40:08;;;;;;;7.13;3.37;;;;;20.50;101719.00;;;;2073508;28;20269;-58
2024/01/25 04:41:08;;;;;;;8.77;3.33;;;;;20.50;101715.00;;;;2078872;28;20244;-58
2024/01/25 04:42:09;;;;;;;7.57;2.70;;;;;20.50;101725.00;;;;2070955;28;20261;-57
2024/01/25 04:43:09;;;;;;;6.27;2.50;;;;;20.50;101723.00;;;;2076856;28;20759;-59
2024/01/25 04:44:09;;;;;;;7.87;3.17;;;;;20.50;101718.00;;;;2072065;28;20217;-59
2024/01/25 04:45:10;;;;;;;6.30;3.30;;;;;20.50;101718.00;;;;2076149;28;20210;-58
2024/01/25 04:46:10;;;;;;;6.80;3.03;;;;;20.50;101720.00;;;;2079602;28;20279;-58
2024/01/25 04:47:10;;;;;;;8.20;3.10;;;;;20.50;101759.00;;;;2069109;28;20248;-58
2024/01/25 04:48:11;;;;;;;6.80;2.90;;;;;20.50;101713.00;;;;2077487;28;20658;-59
2024/01/25 04:49:11;;;;;;;8.70;3.20;;;;;20.50;101717.00;;;;2069760;28;20562;-58
2024/01/25 04:50:11;;;;;;;8.73;3.23;;;;;20.50;101724.00;;;;2085344;28;20709;-60
2024/01/25 04:51:19;;;;;;;5.60;2.37;;;;;20.50;101714.00;;;;2080184;28;20690;-60
2024/01/25 04:52:19;;;;;;;6.40;2.80;;;;;20.50;101719.00;;;;2062666;28;20211;-59
2024/01/25 04:53:19;;;;;;;8.30;3.40;;;;;20.50;101718.00;;;;2077865;28;20657;-59
2024/01/25 04:54:20;;;;;;;8.00;3.30;;;;;20.50;101490.00;;;;2063320;28;20333;-59
2024/01/25 04:55:20;;;;;;;6.73;3.03;;;;;20.50;101717.00;;;;2085909;28;20236;-59
2024/01/25 04:56:20;;;;;;;8.63;2.77;;;;;20.50;101713.00;;;;2073323;28;20347;-59